sensor_id;sensor_type;location;lat;lon;timestamp;P1;P2;P0
42510;PMS7003;28141;51.120;17.114;2023-04-25T00:01:15;9;2;2
42510;PMS7003;28141;51.120;17.114;2023-04-25T00:04:29;9;2;1
42510;PMS7003;28141;51.120;17.114;2023-04-25T00:08:12;10;3;2
42510;PMS7003;28141;51.120;17.114;2023-04-25T00:11:25;9;2;1
42510;PMS7003;28141;51.120;17.114;2023-04-25T00:14:39;10;2;1
42510;PMS7003;28141;51.120;17.114;2023-04-25T00:17:53;9;2;2
42510;PMS7003;28141;51.120;17.114;2023-04-25T00:21:07;9;2;1
42510;PMS7003;28141;51.120;17.114;2023-04-25T00:24:48;9;2;1
42510;PMS7003;28141;51.120;17.114;2023-04-25T00:28:03;9;2;1
42510;PMS7003;28141;51.120;17.114;2023-04-25T00:31:17;9;1;1
42510;PMS7003;28141;51.120;17.114;2023-04-25T00:34:32;9;2;1
42510;PMS7003;28141;51.120;17.114;2023-04-25T00:38:12;10;2;1
42510;PMS7003;28141;51.120;17.114;2023-04-25T00:41:26;9;2;1
42510;PMS7003;28141;51.120;17.114;2023-04-25T00:44:40;9;2;1
42510;PMS7003;28141;51.120;17.114;2023-04-25T00:47:56;8;1;1
42510;PMS7003;28141;51.120;17.114;2023-04-25T00:51:36;8;2;1
42510;PMS7003;28141;51.120;17.114;2023-04-25T00:54:50;9;2;1
42510;PMS7003;28141;51.120;17.114;2023-04-25T00:58:04;8;1;1
42510;PMS7003;28141;51.120;17.114;2023-04-25T01:01:19;9;2;2
42510;PMS7003;28141;51.120;17.114;2023-04-25T01:04:59;9;2;1
42510;PMS7003;28141;51.120;17.114;2023-04-25T01:08:13;8;2;1
42510;PMS7003;28141;51.120;17.114;2023-04-25T01:11:28;7;1;1
42510;PMS7003;28141;51.120;17.114;2023-04-25T01:14:42;9;2;1
42510;PMS7003;28141;51.120;17.114;2023-04-25T01:18:23;10;1;1
42510;PMS7003;28141;51.120;17.114;2023-04-25T01:21:37;8;2;1
42510;PMS7003;28141;51.120;17.114;2023-04-25T01:24:52;8;1;1
42510;PMS7003;28141;51.120;17.114;2023-04-25T01:28:07;8;2;1
42510;PMS7003;28141;51.120;17.114;2023-04-25T01:31:48;9;1;1
42510;PMS7003;28141;51.120;17.114;2023-04-25T01:35:03;8;1;1
42510;PMS7003;28141;51.120;17.114;2023-04-25T01:38:22;9;2;1
42510;PMS7003;28141;51.120;17.114;2023-04-25T01:41:36;8;2;1
42510;PMS7003;28141;51.120;17.114;2023-04-25T01:45:17;7;1;0
42510;PMS7003;28141;51.120;17.114;2023-04-25T01:48:31;8;2;1
42510;PMS7003;28141;51.120;17.114;2023-04-25T01:51:45;8;1;1
42510;PMS7003;28141;51.120;17.114;2023-04-25T01:54:59;8;2;1
42510;PMS7003;28141;51.120;17.114;2023-04-25T01:58:41;8;1;1
42510;PMS7003;28141;51.120;17.114;2023-04-25T02:01:55;8;1;1
42510;PMS7003;28141;51.120;17.114;2023-04-25T02:05:09;9;3;1
42510;PMS7003;28141;51.120;17.114;2023-04-25T02:08:23;8;1;1
42510;PMS7003;28141;51.120;17.114;2023-04-25T02:12:07;8;1;1
42510;PMS7003;28141;51.120;17.114;2023-04-25T02:15:23;8;2;1
42510;PMS7003;28141;51.120;17.114;2023-04-25T02:18:37;8;1;1
42510;PMS7003;28141;51.120;17.114;2023-04-25T02:21:52;8;1;1
42510;PMS7003;28141;51.120;17.114;2023-04-25T02:25:32;8;1;1
42510;PMS7003;28141;51.120;17.114;2023-04-25T02:28:46;8;1;1
42510;PMS7003;28141;51.120;17.114;2023-04-25T02:32:00;8;1;1
42510;PMS7003;28141;51.120;17.114;2023-04-25T02:35:14;7;1;1
42510;PMS7003;28141;51.120;17.114;2023-04-25T02:38:54;8;1;1
42510;PMS7003;28141;51.120;17.114;2023-04-25T02:42:08;8;2;1
42510;PMS7003;28141;51.120;17.114;2023-04-25T02:45:22;8;1;1
42510;PMS7003;28141;51.120;17.114;2023-04-25T02:48:36;9;2;1
42510;PMS7003;28141;51.120;17.114;2023-04-25T02:52:16;7;0;0
42510;PMS7003;28141;51.120;17.114;2023-04-25T02:55:30;8;1;1
42510;PMS7003;28141;51.120;17.114;2023-04-25T02:58:44;8;1;1
42510;PMS7003;28141;51.120;17.114;2023-04-25T03:01:58;8;1;1
42510;PMS7003;28141;51.120;17.114;2023-04-25T03:05:38;7;1;1
42510;PMS7003;28141;51.120;17.114;2023-04-25T03:08:52;8;1;0
42510;PMS7003;28141;51.120;17.114;2023-04-25T03:12:06;7;1;1
42510;PMS7003;28141;51.120;17.114;2023-04-25T03:15:20;8;1;1
42510;PMS7003;28141;51.120;17.114;2023-04-25T03:19:00;7;1;1
42510;PMS7003;28141;51.120;17.114;2023-04-25T03:22:14;8;1;1
42510;PMS7003;28141;51.120;17.114;2023-04-25T03:25:28;8;1;1
42510;PMS7003;28141;51.120;17.114;2023-04-25T03:28:42;8;2;1
42510;PMS7003;28141;51.120;17.114;2023-04-25T03:32:22;8;1;1
42510;PMS7003;28141;51.120;17.114;2023-04-25T03:35:39;8;2;1
42510;PMS7003;28141;51.120;17.114;2023-04-25T03:38:55;8;1;0
42510;PMS7003;28141;51.120;17.114;2023-04-25T03:42:09;9;2;1
42510;PMS7003;28141;51.120;17.114;2023-04-25T03:45:49;10;3;2
42510;PMS7003;28141;51.120;17.114;2023-04-25T03:49:04;9;2;1
42510;PMS7003;28141;51.120;17.114;2023-04-25T03:52:18;8;1;1
42510;PMS7003;28141;51.120;17.114;2023-04-25T03:55:32;9;2;1
42510;PMS7003;28141;51.120;17.114;2023-04-25T03:59:12;9;2;2
42510;PMS7003;28141;51.120;17.114;2023-04-25T04:02:26;9;2;1
42510;PMS7003;28141;51.120;17.114;2023-04-25T04:05:40;8;2;1
42510;PMS7003;28141;51.120;17.114;2023-04-25T04:08:54;9;2;1
42510;PMS7003;28141;51.120;17.114;2023-04-25T04:12:35;8;2;1
42510;PMS7003;28141;51.120;17.114;2023-04-25T04:15:50;9;2;1
42510;PMS7003;28141;51.120;17.114;2023-04-25T04:19:04;9;2;1
42510;PMS7003;28141;51.120;17.114;2023-04-25T04:22:18;8;2;1
42510;PMS7003;28141;51.120;17.114;2023-04-25T04:25:58;9;3;1
42510;PMS7003;28141;51.120;17.114;2023-04-25T04:29:13;11;3;2
42510;PMS7003;28141;51.120;17.114;2023-04-25T04:32:33;10;2;1
42510;PMS7003;28141;51.120;17.114;2023-04-25T04:35:50;9;2;1
42510;PMS7003;28141;51.120;17.114;2023-04-25T04:39:34;10;3;1
42510;PMS7003;28141;51.120;17.114;2023-04-25T04:42:49;9;3;1
42510;PMS7003;28141;51.120;17.114;2023-04-25T04:46:03;9;3;2
42510;PMS7003;28141;51.120;17.114;2023-04-25T04:49:17;9;2;1
42510;PMS7003;28141;51.120;17.114;2023-04-25T04:52:58;10;3;2
42510;PMS7003;28141;51.120;17.114;2023-04-25T04:56:12;9;2;1
42510;PMS7003;28141;51.120;17.114;2023-04-25T04:59:25;9;3;2
42510;PMS7003;28141;51.120;17.114;2023-04-25T05:02:39;8;2;1
42510;PMS7003;28141;51.120;17.114;2023-04-25T05:06:20;9;3;2
42510;PMS7003;28141;51.120;17.114;2023-04-25T05:09:33;10;3;2
42510;PMS7003;28141;51.120;17.114;2023-04-25T05:12:47;13;4;3
42510;PMS7003;28141;51.120;17.114;2023-04-25T05:16:02;12;5;3
42510;PMS7003;28141;51.120;17.114;2023-04-25T05:19:43;12;5;2
42510;PMS7003;28141;51.120;17.114;2023-04-25T05:22:56;11;4;3
42510;PMS7003;28141;51.120;17.114;2023-04-25T05:26:10;12;4;3
42510;PMS7003;28141;51.120;17.114;2023-04-25T05:29:26;13;5;3
42510;PMS7003;28141;51.120;17.114;2023-04-25T05:33:07;11;4;2
42510;PMS7003;28141;51.120;17.114;2023-04-25T05:36:20;12;5;3
42510;PMS7003;28141;51.120;17.114;2023-04-25T05:39:35;10;3;3
42510;PMS7003;28141;51.120;17.114;2023-04-25T05:42:49;12;3;2
42510;PMS7003;28141;51.120;17.114;2023-04-25T05:46:29;10;4;3
42510;PMS7003;28141;51.120;17.114;2023-04-25T05:49:43;10;3;2
42510;PMS7003;28141;51.120;17.114;2023-04-25T05:52:57;10;3;2
42510;PMS7003;28141;51.120;17.114;2023-04-25T05:56:11;11;5;3
42510;PMS7003;28141;51.120;17.114;2023-04-25T05:59:52;10;3;2
42510;PMS7003;28141;51.120;17.114;2023-04-25T06:03:07;11;4;3
42510;PMS7003;28141;51.120;17.114;2023-04-25T06:06:23;14;5;3
42510;PMS7003;28141;51.120;17.114;2023-04-25T06:09:37;12;5;3
42510;PMS7003;28141;51.120;17.114;2023-04-25T06:13:19;13;4;3
42510;PMS7003;28141;51.120;17.114;2023-04-25T06:16:33;11;4;3
42510;PMS7003;28141;51.120;17.114;2023-04-25T06:19:47;9;2;2
42510;PMS7003;28141;51.120;17.114;2023-04-25T06:23:01;11;4;2
42510;PMS7003;28141;51.120;17.114;2023-04-25T06:26:41;9;3;2
42510;PMS7003;28141;51.120;17.114;2023-04-25T06:29:55;10;3;2
42510;PMS7003;28141;51.120;17.114;2023-04-25T06:33:09;10;4;2
42510;PMS7003;28141;51.120;17.114;2023-04-25T06:36:23;9;3;2
42510;PMS7003;28141;51.120;17.114;2023-04-25T06:40:07;10;4;3
42510;PMS7003;28141;51.120;17.114;2023-04-25T06:43:21;12;5;3
42510;PMS7003;28141;51.120;17.114;2023-04-25T06:46:35;11;3;2
42510;PMS7003;28141;51.120;17.114;2023-04-25T06:49:50;12;4;3
42510;PMS7003;28141;51.120;17.114;2023-04-25T06:53:30;11;4;3
42510;PMS7003;28141;51.120;17.114;2023-04-25T06:56:44;13;5;2
42510;PMS7003;28141;51.120;17.114;2023-04-25T06:59:58;11;4;3
42510;PMS7003;28141;51.120;17.114;2023-04-25T07:03:12;12;4;3
42510;PMS7003;28141;51.120;17.114;2023-04-25T07:06:53;10;3;2
42510;PMS7003;28141;51.120;17.114;2023-04-25T07:10:08;12;4;3
42510;PMS7003;28141;51.120;17.114;2023-04-25T07:13:22;11;3;2
42510;PMS7003;28141;51.120;17.114;2023-04-25T07:16:36;10;4;2
42510;PMS7003;28141;51.120;17.114;2023-04-25T07:20:16;10;2;2
42510;PMS7003;28141;51.120;17.114;2023-04-25T07:23:30;11;3;2
42510;PMS7003;28141;51.120;17.114;2023-04-25T07:26:44;10;3;2
42510;PMS7003;28141;51.120;17.114;2023-04-25T07:29:59;10;3;2
42510;PMS7003;28141;51.120;17.114;2023-04-25T07:33:39;11;3;2
42510;PMS7003;28141;51.120;17.114;2023-04-25T07:36:53;9;2;2
42510;PMS7003;28141;51.120;17.114;2023-04-25T07:40:08;11;4;2
42510;PMS7003;28141;51.120;17.114;2023-04-25T07:43:22;10;4;2
42510;PMS7003;28141;51.120;17.114;2023-04-25T07:47:03;9;3;1
42510;PMS7003;28141;51.120;17.114;2023-04-25T07:50:19;10;2;2
42510;PMS7003;28141;51.120;17.114;2023-04-25T07:53:33;10;3;2
42510;PMS7003;28141;51.120;17.114;2023-04-25T07:56:50;11;2;1
42510;PMS7003;28141;51.120;17.114;2023-04-25T08:00:30;11;2;2
42510;PMS7003;28141;51.120;17.114;2023-04-25T08:03:44;9;2;1
42510;PMS7003;28141;51.120;17.114;2023-04-25T08:06:58;10;3;1
42510;PMS7003;28141;51.120;17.114;2023-04-25T08:10:12;9;2;1
42510;PMS7003;28141;51.120;17.114;2023-04-25T08:13:53;10;2;2
42510;PMS7003;28141;51.120;17.114;2023-04-25T08:17:09;8;2;1
42510;PMS7003;28141;51.120;17.114;2023-04-25T08:20:23;9;3;1
42510;PMS7003;28141;51.120;17.114;2023-04-25T08:23:38;10;4;2
42510;PMS7003;28141;51.120;17.114;2023-04-25T08:27:19;11;4;2
42510;PMS7003;28141;51.120;17.114;2023-04-25T08:30:34;8;1;1
42510;PMS7003;28141;51.120;17.114;2023-04-25T08:33:48;10;3;2
42510;PMS7003;28141;51.120;17.114;2023-04-25T08:37:04;13;5;3
42510;PMS7003;28141;51.120;17.114;2023-04-25T08:40:45;12;5;3
42510;PMS7003;28141;51.120;17.114;2023-04-25T08:44:06;9;2;1
42510;PMS7003;28141;51.120;17.114;2023-04-25T08:47:24;9;2;2
42510;PMS7003;28141;51.120;17.114;2023-04-25T08:51:07;12;4;2
42510;PMS7003;28141;51.120;17.114;2023-04-25T08:54:24;11;3;2
42510;PMS7003;28141;51.120;17.114;2023-04-25T08:57:41;11;4;2
42510;PMS7003;28141;51.120;17.114;2023-04-25T09:00:56;10;2;2
42510;PMS7003;28141;51.120;17.114;2023-04-25T09:04:37;11;3;2
42510;PMS7003;28141;51.120;17.114;2023-04-25T09:07:51;13;4;3
42510;PMS7003;28141;51.120;17.114;2023-04-25T09:11:04;14;6;4
42510;PMS7003;28141;51.120;17.114;2023-04-25T09:14:20;14;7;3
42510;PMS7003;28141;51.120;17.114;2023-04-25T09:18:01;16;6;4
42510;PMS7003;28141;51.120;17.114;2023-04-25T09:21:15;13;5;3
42510;PMS7003;28141;51.120;17.114;2023-04-25T09:27:51;12;5;3
42510;PMS7003;28141;51.120;17.114;2023-04-25T09:31:35;11;3;2
42510;PMS7003;28141;51.120;17.114;2023-04-25T09:34:50;11;5;4
42510;PMS7003;28141;51.120;17.114;2023-04-25T09:38:11;11;3;2
42510;PMS7003;28141;51.120;17.114;2023-04-25T09:41:27;11;4;3
42510;PMS7003;28141;51.120;17.114;2023-04-25T09:45:08;10;4;3
42510;PMS7003;28141;51.120;17.114;2023-04-25T09:48:28;12;4;3
42510;PMS7003;28141;51.120;17.114;2023-04-25T09:51:43;12;6;4
42510;PMS7003;28141;51.120;17.114;2023-04-25T09:55:08;13;5;3
42510;PMS7003;28141;51.120;17.114;2023-04-25T09:58:48;13;6;3
42510;PMS7003;28141;51.120;17.114;2023-04-25T10:02:08;15;6;4
42510;PMS7003;28141;51.120;17.114;2023-04-25T10:05:24;14;8;5
42510;PMS7003;28141;51.120;17.114;2023-04-25T10:08:39;12;5;3
42510;PMS7003;28141;51.120;17.114;2023-04-25T10:12:21;15;6;4
42510;PMS7003;28141;51.120;17.114;2023-04-25T10:15:35;12;4;3
42510;PMS7003;28141;51.120;17.114;2023-04-25T10:21:23;14;5;4
42510;PMS7003;28141;51.120;17.114;2023-04-25T10:24:40;11;5;3
42510;PMS7003;28141;51.120;17.114;2023-04-25T10:27:54;11;4;2
42510;PMS7003;28141;51.120;17.114;2023-04-25T10:31:08;11;5;3
42510;PMS7003;28141;51.120;17.114;2023-04-25T10:34:49;14;6;4
42510;PMS7003;28141;51.120;17.114;2023-04-25T10:38:03;13;5;2
42510;PMS7003;28141;51.120;17.114;2023-04-25T10:41:25;12;6;3
42510;PMS7003;28141;51.120;17.114;2023-04-25T10:44:48;15;6;3
42510;PMS7003;28141;51.120;17.114;2023-04-25T10:48:34;11;5;4
42510;PMS7003;28141;51.120;17.114;2023-04-25T10:51:48;11;5;3
42510;PMS7003;28141;51.120;17.114;2023-04-25T10:55:03;11;5;3
42510;PMS7003;28141;51.120;17.114;2023-04-25T10:58:22;11;4;3
42510;PMS7003;28141;51.120;17.114;2023-04-25T11:02:02;11;4;3
42510;PMS7003;28141;51.120;17.114;2023-04-25T11:08:48;11;5;3
42510;PMS7003;28141;51.120;17.114;2023-04-25T11:12:30;12;4;3
42510;PMS7003;28141;51.120;17.114;2023-04-25T11:15:45;10;3;2
42510;PMS7003;28141;51.120;17.114;2023-04-25T11:19:03;12;4;3
42510;PMS7003;28141;51.120;17.114;2023-04-25T11:22:18;12;5;3
42510;PMS7003;28141;51.120;17.114;2023-04-25T11:25:59;11;4;2
42510;PMS7003;28141;51.120;17.114;2023-04-25T11:29:14;13;5;3
42510;PMS7003;28141;51.120;17.114;2023-04-25T11:32:28;11;4;3
42510;PMS7003;28141;51.120;17.114;2023-04-25T11:35:42;12;5;3
42510;PMS7003;28141;51.120;17.114;2023-04-25T11:39:26;10;3;2
42510;PMS7003;28141;51.120;17.114;2023-04-25T11:42:44;11;3;2
42510;PMS7003;28141;51.120;17.114;2023-04-25T11:45:59;11;3;2
42510;PMS7003;28141;51.120;17.114;2023-04-25T11:49:14;10;3;2
42510;PMS7003;28141;51.120;17.114;2023-04-25T11:52:57;10;4;1
42510;PMS7003;28141;51.120;17.114;2023-04-25T11:56:11;10;3;2
42510;PMS7003;28141;51.120;17.114;2023-04-25T11:59:25;11;4;3
42510;PMS7003;28141;51.120;17.114;2023-04-25T12:02:40;10;4;3
42510;PMS7003;28141;51.120;17.114;2023-04-25T12:06:25;11;3;2
42510;PMS7003;28141;51.120;17.114;2023-04-25T12:09:40;11;3;2
42510;PMS7003;28141;51.120;17.114;2023-04-25T12:12:54;10;4;2
42510;PMS7003;28141;51.120;17.114;2023-04-25T12:16:08;10;3;2
42510;PMS7003;28141;51.120;17.114;2023-04-25T12:19:48;11;3;2
42510;PMS7003;28141;51.120;17.114;2023-04-25T12:23:05;11;4;2
42510;PMS7003;28141;51.120;17.114;2023-04-25T12:26:20;10;3;2
42510;PMS7003;28141;51.120;17.114;2023-04-25T12:29:35;10;3;2
42510;PMS7003;28141;51.120;17.114;2023-04-25T12:33:16;10;4;2
42510;PMS7003;28141;51.120;17.114;2023-04-25T12:36:30;10;3;2
42510;PMS7003;28141;51.120;17.114;2023-04-25T12:39:44;12;4;3
42510;PMS7003;28141;51.120;17.114;2023-04-25T12:42:59;11;3;2
42510;PMS7003;28141;51.120;17.114;2023-04-25T12:46:39;9;2;2
42510;PMS7003;28141;51.120;17.114;2023-04-25T12:49:54;9;3;2
42510;PMS7003;28141;51.120;17.114;2023-04-25T12:53:08;10;3;2
42510;PMS7003;28141;51.120;17.114;2023-04-25T12:56:22;10;3;1
42510;PMS7003;28141;51.120;17.114;2023-04-25T13:00:02;9;3;2
42510;PMS7003;28141;51.120;17.114;2023-04-25T13:03:21;9;2;2
42510;PMS7003;28141;51.120;17.114;2023-04-25T13:06:35;10;2;1
42510;PMS7003;28141;51.120;17.114;2023-04-25T13:09:50;9;3;2
42510;PMS7003;28141;51.120;17.114;2023-04-25T13:13:30;10;3;1
42510;PMS7003;28141;51.120;17.114;2023-04-25T13:16:45;9;2;1
42510;PMS7003;28141;51.120;17.114;2023-04-25T13:19:59;9;2;1
42510;PMS7003;28141;51.120;17.114;2023-04-25T13:23:13;8;1;1
42510;PMS7003;28141;51.120;17.114;2023-04-25T13:26:53;9;1;1
42510;PMS7003;28141;51.120;17.114;2023-04-25T13:30:07;8;1;1
42510;PMS7003;28141;51.120;17.114;2023-04-25T13:33:22;9;2;2
42510;PMS7003;28141;51.120;17.114;2023-04-25T13:36:36;8;1;1
42510;PMS7003;28141;51.120;17.114;2023-04-25T13:40:16;8;1;1
42510;PMS7003;28141;51.120;17.114;2023-04-25T13:43:31;9;2;1
42510;PMS7003;28141;51.120;17.114;2023-04-25T13:46:47;8;2;2
42510;PMS7003;28141;51.120;17.114;2023-04-25T13:50:01;8;1;1
42510;PMS7003;28141;51.120;17.114;2023-04-25T13:53:42;8;1;1
42510;PMS7003;28141;51.120;17.114;2023-04-25T13:56:56;9;1;1
42510;PMS7003;28141;51.120;17.114;2023-04-25T14:00:13;8;1;1
42510;PMS7003;28141;51.120;17.114;2023-04-25T14:03:27;10;2;1
42510;PMS7003;28141;51.120;17.114;2023-04-25T14:07:07;9;3;1
42510;PMS7003;28141;51.120;17.114;2023-04-25T14:10:23;9;2;1
42510;PMS7003;28141;51.120;17.114;2023-04-25T14:13:37;8;2;1
42510;PMS7003;28141;51.120;17.114;2023-04-25T14:16:51;9;2;1
42510;PMS7003;28141;51.120;17.114;2023-04-25T14:20:33;8;1;0
42510;PMS7003;28141;51.120;17.114;2023-04-25T14:23:48;8;1;1
42510;PMS7003;28141;51.120;17.114;2023-04-25T14:27:02;7;1;1
42510;PMS7003;28141;51.120;17.114;2023-04-25T14:30:17;10;2;1
42510;PMS7003;28141;51.120;17.114;2023-04-25T14:33:59;8;1;1
42510;PMS7003;28141;51.120;17.114;2023-04-25T14:37:13;8;1;1
42510;PMS7003;28141;51.120;17.114;2023-04-25T14:40:27;7;1;0
42510;PMS7003;28141;51.120;17.114;2023-04-25T14:43:41;8;2;1
42510;PMS7003;28141;51.120;17.114;2023-04-25T14:47:21;8;1;1
42510;PMS7003;28141;51.120;17.114;2023-04-25T14:50:34;9;1;0
42510;PMS7003;28141;51.120;17.114;2023-04-25T14:53:48;7;1;0
42510;PMS7003;28141;51.120;17.114;2023-04-25T14:57:04;8;2;1
42510;PMS7003;28141;51.120;17.114;2023-04-25T15:00:44;8;2;1
42510;PMS7003;28141;51.120;17.114;2023-04-25T15:03:58;8;1;1
42510;PMS7003;28141;51.120;17.114;2023-04-25T15:07:11;8;1;1
42510;PMS7003;28141;51.120;17.114;2023-04-25T15:10:26;8;1;1
42510;PMS7003;28141;51.120;17.114;2023-04-25T15:14:06;8;2;1
42510;PMS7003;28141;51.120;17.114;2023-04-25T15:17:19;8;2;1
42510;PMS7003;28141;51.120;17.114;2023-04-25T15:20:33;8;1;1
42510;PMS7003;28141;51.120;17.114;2023-04-25T15:23:48;9;2;1
42510;PMS7003;28141;51.120;17.114;2023-04-25T15:27:30;8;2;1
42510;PMS7003;28141;51.120;17.114;2023-04-25T15:30:44;8;2;1
42510;PMS7003;28141;51.120;17.114;2023-04-25T15:33:58;8;1;0
42510;PMS7003;28141;51.120;17.114;2023-04-25T15:37:13;7;1;1
42510;PMS7003;28141;51.120;17.114;2023-04-25T15:40:27;10;3;2
42510;PMS7003;28141;51.120;17.114;2023-04-25T15:44:07;8;1;1
42510;PMS7003;28141;51.120;17.114;2023-04-25T15:47:22;9;2;1
42510;PMS7003;28141;51.120;17.114;2023-04-25T15:50:36;7;1;0
42510;PMS7003;28141;51.120;17.114;2023-04-25T15:53:50;9;2;1
42510;PMS7003;28141;51.120;17.114;2023-04-25T15:57:32;7;1;1
42510;PMS7003;28141;51.120;17.114;2023-04-25T16:00:47;7;1;0
42510;PMS7003;28141;51.120;17.114;2023-04-25T16:04:03;9;2;1
42510;PMS7003;28141;51.120;17.114;2023-04-25T16:07:18;8;1;0
42510;PMS7003;28141;51.120;17.114;2023-04-25T16:10:58;9;2;1
42510;PMS7003;28141;51.120;17.114;2023-04-25T16:14:13;8;2;1
42510;PMS7003;28141;51.120;17.114;2023-04-25T16:17:27;9;2;1
42510;PMS7003;28141;51.120;17.114;2023-04-25T16:20:42;9;3;1
42510;PMS7003;28141;51.120;17.114;2023-04-25T16:24:23;9;2;1
42510;PMS7003;28141;51.120;17.114;2023-04-25T16:27:37;8;1;0
42510;PMS7003;28141;51.120;17.114;2023-04-25T16:30:51;9;2;1
42510;PMS7003;28141;51.120;17.114;2023-04-25T16:34:05;9;2;2
42510;PMS7003;28141;51.120;17.114;2023-04-25T16:37:45;9;2;2
42510;PMS7003;28141;51.120;17.114;2023-04-25T16:41:00;10;2;1
42510;PMS7003;28141;51.120;17.114;2023-04-25T16:44:13;9;2;1
42510;PMS7003;28141;51.120;17.114;2023-04-25T16:47:28;9;2;1
42510;PMS7003;28141;51.120;17.114;2023-04-25T16:51:09;9;2;1
42510;PMS7003;28141;51.120;17.114;2023-04-25T16:54:23;9;2;1
42510;PMS7003;28141;51.120;17.114;2023-04-25T16:57:40;7;1;0
42510;PMS7003;28141;51.120;17.114;2023-04-25T17:00:54;9;1;1
42510;PMS7003;28141;51.120;17.114;2023-04-25T17:04:34;9;2;1
42510;PMS7003;28141;51.120;17.114;2023-04-25T17:07:49;8;2;1
42510;PMS7003;28141;51.120;17.114;2023-04-25T17:11:04;9;1;1
42510;PMS7003;28141;51.120;17.114;2023-04-25T17:14:18;8;1;0
42510;PMS7003;28141;51.120;17.114;2023-04-25T17:17:58;8;2;1
42510;PMS7003;28141;51.120;17.114;2023-04-25T17:21:13;9;2;1
42510;PMS7003;28141;51.120;17.114;2023-04-25T17:24:27;8;2;1
42510;PMS7003;28141;51.120;17.114;2023-04-25T17:27:40;9;2;1
42510;PMS7003;28141;51.120;17.114;2023-04-25T17:31:21;9;3;1
42510;PMS7003;28141;51.120;17.114;2023-04-25T17:34:35;8;1;1
42510;PMS7003;28141;51.120;17.114;2023-04-25T17:37:51;9;2;1
42510;PMS7003;28141;51.120;17.114;2023-04-25T17:41:05;8;2;1
42510;PMS7003;28141;51.120;17.114;2023-04-25T17:44:48;8;2;1
42510;PMS7003;28141;51.120;17.114;2023-04-25T17:48:03;8;1;1
42510;PMS7003;28141;51.120;17.114;2023-04-25T17:51:17;9;3;2
42510;PMS7003;28141;51.120;17.114;2023-04-25T17:54:31;9;2;1
42510;PMS7003;28141;51.120;17.114;2023-04-25T17:58:11;9;1;1
42510;PMS7003;28141;51.120;17.114;2023-04-25T18:01:25;8;2;1
42510;PMS7003;28141;51.120;17.114;2023-04-25T18:04:39;8;2;1
42510;PMS7003;28141;51.120;17.114;2023-04-25T18:07:52;9;1;1
42510;PMS7003;28141;51.120;17.114;2023-04-25T18:11:34;9;2;1
42510;PMS7003;28141;51.120;17.114;2023-04-25T18:14:48;9;2;1
42510;PMS7003;28141;51.120;17.114;2023-04-25T18:18:01;9;2;1
42510;PMS7003;28141;51.120;17.114;2023-04-25T18:21:25;9;1;1
42510;PMS7003;28141;51.120;17.114;2023-04-25T18:25:08;8;2;1
42510;PMS7003;28141;51.120;17.114;2023-04-25T18:28:23;8;2;1
42510;PMS7003;28141;51.120;17.114;2023-04-25T18:31:37;8;2;1
42510;PMS7003;28141;51.120;17.114;2023-04-25T18:34:51;9;2;2
42510;PMS7003;28141;51.120;17.114;2023-04-25T18:38:31;8;1;1
42510;PMS7003;28141;51.120;17.114;2023-04-25T18:41:45;9;2;1
42510;PMS7003;28141;51.120;17.114;2023-04-25T18:44:59;9;2;1
42510;PMS7003;28141;51.120;17.114;2023-04-25T18:48:13;9;3;1
42510;PMS7003;28141;51.120;17.114;2023-04-25T18:51:53;9;3;2
42510;PMS7003;28141;51.120;17.114;2023-04-25T18:55:09;9;3;2
42510;PMS7003;28141;51.120;17.114;2023-04-25T18:58:23;10;2;2
42510;PMS7003;28141;51.120;17.114;2023-04-25T19:01:38;8;1;0
42510;PMS7003;28141;51.120;17.114;2023-04-25T19:05:18;9;2;1
42510;PMS7003;28141;51.120;17.114;2023-04-25T19:08:32;10;2;1
42510;PMS7003;28141;51.120;17.114;2023-04-25T19:11:46;10;3;2
42510;PMS7003;28141;51.120;17.114;2023-04-25T19:15:01;9;2;2
42510;PMS7003;28141;51.120;17.114;2023-04-25T19:18:41;9;2;1
42510;PMS7003;28141;51.120;17.114;2023-04-25T19:21:55;9;2;1
42510;PMS7003;28141;51.120;17.114;2023-04-25T19:25:10;12;4;2
42510;PMS7003;28141;51.120;17.114;2023-04-25T19:28:24;9;2;2
42510;PMS7003;28141;51.120;17.114;2023-04-25T19:32:05;9;2;1
42510;PMS7003;28141;51.120;17.114;2023-04-25T19:35:19;11;2;1
42510;PMS7003;28141;51.120;17.114;2023-04-25T19:38:33;10;2;1
42510;PMS7003;28141;51.120;17.114;2023-04-25T19:41:48;9;3;1
42510;PMS7003;28141;51.120;17.114;2023-04-25T19:45:28;10;3;2
42510;PMS7003;28141;51.120;17.114;2023-04-25T19:48:46;8;2;1
42510;PMS7003;28141;51.120;17.114;2023-04-25T19:51:59;9;2;1
42510;PMS7003;28141;51.120;17.114;2023-04-25T19:55:13;9;3;2
42510;PMS7003;28141;51.120;17.114;2023-04-25T19:58:53;10;3;2
42510;PMS7003;28141;51.120;17.114;2023-04-25T20:02:10;9;3;2
42510;PMS7003;28141;51.120;17.114;2023-04-25T20:05:24;9;3;2
42510;PMS7003;28141;51.120;17.114;2023-04-25T20:08:39;9;2;2
42510;PMS7003;28141;51.120;17.114;2023-04-25T20:12:21;9;2;1
42510;PMS7003;28141;51.120;17.114;2023-04-25T20:15:36;9;2;2
42510;PMS7003;28141;51.120;17.114;2023-04-25T20:18:50;9;3;1
42510;PMS7003;28141;51.120;17.114;2023-04-25T20:22:05;10;3;2
42510;PMS7003;28141;51.120;17.114;2023-04-25T20:25:45;10;3;1
42510;PMS7003;28141;51.120;17.114;2023-04-25T20:29:00;9;2;2
42510;PMS7003;28141;51.120;17.114;2023-04-25T20:32:14;10;3;1
42510;PMS7003;28141;51.120;17.114;2023-04-25T20:35:28;10;3;1
42510;PMS7003;28141;51.120;17.114;2023-04-25T20:39:09;9;2;1
42510;PMS7003;28141;51.120;17.114;2023-04-25T20:42:23;11;2;2
42510;PMS7003;28141;51.120;17.114;2023-04-25T20:45:38;9;2;1
42510;PMS7003;28141;51.120;17.114;2023-04-25T20:48:52;9;3;2
42510;PMS7003;28141;51.120;17.114;2023-04-25T20:52:33;8;2;1
42510;PMS7003;28141;51.120;17.114;2023-04-25T20:55:49;9;3;2
42510;PMS7003;28141;51.120;17.114;2023-04-25T20:59:03;10;3;1
42510;PMS7003;28141;51.120;17.114;2023-04-25T21:02:17;10;3;1
42510;PMS7003;28141;51.120;17.114;2023-04-25T21:05:56;10;2;1
42510;PMS7003;28141;51.120;17.114;2023-04-25T21:09:10;10;4;2
42510;PMS7003;28141;51.120;17.114;2023-04-25T21:12:25;11;4;2
42510;PMS7003;28141;51.120;17.114;2023-04-25T21:15:39;11;3;1
42510;PMS7003;28141;51.120;17.114;2023-04-25T21:19:19;9;2;1
42510;PMS7003;28141;51.120;17.114;2023-04-25T21:22:33;9;2;1
42510;PMS7003;28141;51.120;17.114;2023-04-25T21:25:46;10;3;1
42510;PMS7003;28141;51.120;17.114;2023-04-25T21:29:05;10;2;1
42510;PMS7003;28141;51.120;17.114;2023-04-25T21:32:45;9;2;1
42510;PMS7003;28141;51.120;17.114;2023-04-25T21:36:02;11;3;2
42510;PMS7003;28141;51.120;17.114;2023-04-25T21:39:16;9;2;1
42510;PMS7003;28141;51.120;17.114;2023-04-25T21:42:31;9;3;1
42510;PMS7003;28141;51.120;17.114;2023-04-25T21:46:12;9;2;1
42510;PMS7003;28141;51.120;17.114;2023-04-25T21:49:26;10;2;1
42510;PMS7003;28141;51.120;17.114;2023-04-25T21:52:41;9;2;1
42510;PMS7003;28141;51.120;17.114;2023-04-25T21:55:55;8;2;1
42510;PMS7003;28141;51.120;17.114;2023-04-25T21:59:34;10;2;2
42510;PMS7003;28141;51.120;17.114;2023-04-25T22:02:48;11;2;2
42510;PMS7003;28141;51.120;17.114;2023-04-25T22:06:03;10;3;2
42510;PMS7003;28141;51.120;17.114;2023-04-25T22:09:17;10;3;1
42510;PMS7003;28141;51.120;17.114;2023-04-25T22:12:56;9;3;1
42510;PMS7003;28141;51.120;17.114;2023-04-25T22:16:10;10;3;2